sensor_id;sensor_type;location;lat;lon;timestamp;P1;durP1;ratioP1;P2;durP2;ratioP2
20124;SDS011;10223;50.862;4.360;2022-12-20T00:01:32;3.70;;;2.20;;
20124;SDS011;10223;50.862;4.360;2022-12-20T00:04:00;6.17;;;1.83;;
20124;SDS011;10223;50.862;4.360;2022-12-20T00:06:31;4.00;;;1.60;;
20124;SDS011;10223;50.862;4.360;2022-12-20T00:09:00;4.70;;;1.90;;
20124;SDS011;10223;50.862;4.360;2022-12-20T00:11:28;4.17;;;2.23;;
20124;SDS011;10223;50.862;4.360;2022-12-20T00:13:55;5.17;;;1.70;;
20124;SDS011;10223;50.862;4.360;2022-12-20T00:16:23;5.10;;;1.70;;
20124;SDS011;10223;50.862;4.360;2022-12-20T00:18:52;3.43;;;1.70;;
20124;SDS011;10223;50.862;4.360;2022-12-20T00:21:20;2.77;;;1.90;;
20124;SDS011;10223;50.862;4.360;2022-12-20T00:23:49;2.73;;;1.90;;
20124;SDS011;10223;50.862;4.360;2022-12-20T00:26:17;3.97;;;1.93;;
20124;SDS011;10223;50.862;4.360;2022-12-20T00:28:45;4.30;;;1.83;;
20124;SDS011;10223;50.862;4.360;2022-12-20T00:31:14;3.40;;;2.07;;
20124;SDS011;10223;50.862;4.360;2022-12-20T00:33:43;5.83;;;2.10;;
20124;SDS011;10223;50.862;4.360;2022-12-20T00:36:11;3.40;;;1.97;;
20124;SDS011;10223;50.862;4.360;2022-12-20T00:38:39;3.53;;;1.63;;
20124;SDS011;10223;50.862;4.360;2022-12-20T00:41:08;4.00;;;2.03;;
20124;SDS011;10223;50.862;4.360;2022-12-20T00:43:37;3.30;;;1.80;;
20124;SDS011;10223;50.862;4.360;2022-12-20T00:46:05;4.43;;;2.10;;
20124;SDS011;10223;50.862;4.360;2022-12-20T00:48:34;6.13;;;2.00;;
20124;SDS011;10223;50.862;4.360;2022-12-20T00:51:02;3.13;;;2.00;;
20124;SDS011;10223;50.862;4.360;2022-12-20T00:53:30;4.03;;;2.00;;
20124;SDS011;10223;50.862;4.360;2022-12-20T00:55:58;5.13;;;2.03;;
20124;SDS011;10223;50.862;4.360;2022-12-20T00:58:27;3.43;;;1.80;;
20124;SDS011;10223;50.862;4.360;2022-12-20T01:00:54;3.50;;;1.97;;
20124;SDS011;10223;50.862;4.360;2022-12-20T01:03:21;4.53;;;2.23;;
20124;SDS011;10223;50.862;4.360;2022-12-20T01:05:49;3.73;;;1.90;;
20124;SDS011;10223;50.862;4.360;2022-12-20T01:08:16;3.37;;;1.83;;
20124;SDS011;10223;50.862;4.360;2022-12-20T01:10:44;2.80;;;1.93;;
20124;SDS011;10223;50.862;4.360;2022-12-20T01:13:11;3.03;;;1.93;;
20124;SDS011;10223;50.862;4.360;2022-12-20T01:15:40;3.67;;;1.83;;
20124;SDS011;10223;50.862;4.360;2022-12-20T01:18:07;5.07;;;1.87;;
20124;SDS011;10223;50.862;4.360;2022-12-20T01:20:34;6.20;;;2.03;;
20124;SDS011;10223;50.862;4.360;2022-12-20T01:23:00;5.30;;;2.07;;
20124;SDS011;10223;50.862;4.360;2022-12-20T01:25:27;8.17;;;3.57;;
20124;SDS011;10223;50.862;4.360;2022-12-20T01:27:54;5.33;;;2.43;;
20124;SDS011;10223;50.862;4.360;2022-12-20T01:30:21;7.60;;;1.80;;
20124;SDS011;10223;50.862;4.360;2022-12-20T01:32:50;4.67;;;1.83;;
20124;SDS011;10223;50.862;4.360;2022-12-20T01:35:17;3.67;;;1.73;;
20124;SDS011;10223;50.862;4.360;2022-12-20T01:37:44;2.83;;;2.10;;
20124;SDS011;10223;50.862;4.360;2022-12-20T01:40:11;7.80;;;2.20;;
20124;SDS011;10223;50.862;4.360;2022-12-20T01:42:38;3.57;;;2.03;;
20124;SDS011;10223;50.862;4.360;2022-12-20T01:45:07;3.53;;;1.87;;
20124;SDS011;10223;50.862;4.360;2022-12-20T01:47:38;3.10;;;2.00;;
20124;SDS011;10223;50.862;4.360;2022-12-20T01:50:07;3.47;;;1.67;;
20124;SDS011;10223;50.862;4.360;2022-12-20T01:52:35;5.40;;;2.10;;
20124;SDS011;10223;50.862;4.360;2022-12-20T01:55:06;6.43;;;2.03;;
20124;SDS011;10223;50.862;4.360;2022-12-20T01:57:37;3.90;;;2.03;;
20124;SDS011;10223;50.862;4.360;2022-12-20T02:00:08;8.23;;;2.10;;
20124;SDS011;10223;50.862;4.360;2022-12-20T02:02:36;4.10;;;1.90;;
20124;SDS011;10223;50.862;4.360;2022-12-20T02:05:03;4.03;;;1.70;;
20124;SDS011;10223;50.862;4.360;2022-12-20T02:07:32;4.23;;;2.13;;
20124;SDS011;10223;50.862;4.360;2022-12-20T02:10:01;3.63;;;2.10;;
20124;SDS011;10223;50.862;4.360;2022-12-20T02:12:30;2.50;;;2.00;;
20124;SDS011;10223;50.862;4.360;2022-12-20T02:15:07;2.70;;;1.73;;
20124;SDS011;10223;50.862;4.360;2022-12-20T02:17:44;5.00;;;1.97;;
20124;SDS011;10223;50.862;4.360;2022-12-20T02:20:41;6.93;;;2.13;;
20124;SDS011;10223;50.862;4.360;2022-12-20T02:23:30;3.00;;;1.70;;
20124;SDS011;10223;50.862;4.360;2022-12-20T02:26:30;4.77;;;1.87;;
20124;SDS011;10223;50.862;4.360;2022-12-20T02:29:18;4.33;;;2.40;;
20124;SDS011;10223;50.862;4.360;2022-12-20T02:31:52;2.77;;;1.63;;
20124;SDS011;10223;50.862;4.360;2022-12-20T02:34:25;3.27;;;1.67;;
20124;SDS011;10223;50.862;4.360;2022-12-20T02:36:54;4.07;;;1.93;;
20124;SDS011;10223;50.862;4.360;2022-12-20T02:39:21;4.20;;;2.00;;
20124;SDS011;10223;50.862;4.360;2022-12-20T02:41:52;1.80;;;1.43;;
20124;SDS011;10223;50.862;4.360;2022-12-20T02:44:23;4.27;;;2.30;;
20124;SDS011;10223;50.862;4.360;2022-12-20T02:47:13;4.27;;;1.83;;
20124;SDS011;10223;50.862;4.360;2022-12-20T02:49:44;4.23;;;2.30;;
20124;SDS011;10223;50.862;4.360;2022-12-20T02:52:12;2.50;;;1.80;;
20124;SDS011;10223;50.862;4.360;2022-12-20T02:54:40;4.43;;;1.80;;
20124;SDS011;10223;50.862;4.360;2022-12-20T02:57:09;4.50;;;1.80;;
20124;SDS011;10223;50.862;4.360;2022-12-20T02:59:42;4.20;;;1.90;;
20124;SDS011;10223;50.862;4.360;2022-12-20T03:02:15;2.87;;;1.77;;
20124;SDS011;10223;50.862;4.360;2022-12-20T03:04:43;4.80;;;2.13;;
20124;SDS011;10223;50.862;4.360;2022-12-20T03:07:13;3.17;;;1.90;;
20124;SDS011;10223;50.862;4.360;2022-12-20T03:09:42;4.37;;;2.23;;
20124;SDS011;10223;50.862;4.360;2022-12-20T03:12:10;3.27;;;1.93;;
20124;SDS011;10223;50.862;4.360;2022-12-20T03:14:38;5.07;;;2.10;;
20124;SDS011;10223;50.862;4.360;2022-12-20T03:17:06;2.57;;;1.40;;
20124;SDS011;10223;50.862;4.360;2022-12-20T03:19:34;6.10;;;2.30;;
20124;SDS011;10223;50.862;4.360;2022-12-20T03:22:01;4.70;;;1.73;;
20124;SDS011;10223;50.862;4.360;2022-12-20T03:24:28;4.07;;;2.07;;
20124;SDS011;10223;50.862;4.360;2022-12-20T03:26:56;3.27;;;1.77;;
20124;SDS011;10223;50.862;4.360;2022-12-20T03:29:23;3.40;;;1.70;;
20124;SDS011;10223;50.862;4.360;2022-12-20T03:31:50;4.23;;;1.90;;
20124;SDS011;10223;50.862;4.360;2022-12-20T03:34:17;4.57;;;1.80;;
20124;SDS011;10223;50.862;4.360;2022-12-20T03:36:45;2.87;;;1.47;;
20124;SDS011;10223;50.862;4.360;2022-12-20T03:39:12;3.47;;;1.73;;
20124;SDS011;10223;50.862;4.360;2022-12-20T03:41:39;5.07;;;1.70;;
20124;SDS011;10223;50.862;4.360;2022-12-20T03:44:06;4.33;;;2.10;;
20124;SDS011;10223;50.862;4.360;2022-12-20T03:46:33;3.47;;;1.73;;
20124;SDS011;10223;50.862;4.360;2022-12-20T03:49:00;4.90;;;2.00;;
20124;SDS011;10223;50.862;4.360;2022-12-20T03:51:27;6.57;;;1.97;;
20124;SDS011;10223;50.862;4.360;2022-12-20T03:53:56;5.17;;;2.00;;
20124;SDS011;10223;50.862;4.360;2022-12-20T03:56:22;4.63;;;2.10;;
20124;SDS011;10223;50.862;4.360;2022-12-20T03:58:49;4.40;;;1.90;;
20124;SDS011;10223;50.862;4.360;2022-12-20T04:01:17;3.30;;;2.00;;
20124;SDS011;10223;50.862;4.360;2022-12-20T04:03:46;4.37;;;1.90;;
20124;SDS011;10223;50.862;4.360;2022-12-20T04:06:13;3.53;;;1.70;;
20124;SDS011;10223;50.862;4.360;2022-12-20T04:08:41;4.23;;;1.73;;
20124;SDS011;10223;50.862;4.360;2022-12-20T04:11:09;4.70;;;2.00;;
20124;SDS011;10223;50.862;4.360;2022-12-20T04:13:42;9.57;;;1.97;;
20124;SDS011;10223;50.862;4.360;2022-12-20T04:16:10;5.67;;;1.97;;
20124;SDS011;10223;50.862;4.360;2022-12-20T04:18:36;2.60;;;1.47;;
20124;SDS011;10223;50.862;4.360;2022-12-20T04:21:04;2.07;;;1.40;;
20124;SDS011;10223;50.862;4.360;2022-12-20T04:23:32;5.27;;;1.93;;
20124;SDS011;10223;50.862;4.360;2022-12-20T04:25:59;3.67;;;1.60;;
20124;SDS011;10223;50.862;4.360;2022-12-20T04:28:28;6.50;;;1.93;;
20124;SDS011;10223;50.862;4.360;2022-12-20T04:30:56;7.90;;;1.60;;
20124;SDS011;10223;50.862;4.360;2022-12-20T04:33:23;4.13;;;1.97;;
20124;SDS011;10223;50.862;4.360;2022-12-20T04:35:50;3.93;;;1.97;;
20124;SDS011;10223;50.862;4.360;2022-12-20T04:38:18;4.17;;;1.67;;
20124;SDS011;10223;50.862;4.360;2022-12-20T04:40:47;6.97;;;1.80;;
20124;SDS011;10223;50.862;4.360;2022-12-20T04:43:15;3.00;;;1.60;;
20124;SDS011;10223;50.862;4.360;2022-12-20T04:45:43;3.27;;;1.53;;
20124;SDS011;10223;50.862;4.360;2022-12-20T04:48:12;3.87;;;1.40;;
20124;SDS011;10223;50.862;4.360;2022-12-20T04:50:39;3.23;;;1.80;;
20124;SDS011;10223;50.862;4.360;2022-12-20T04:53:07;3.53;;;1.90;;
20124;SDS011;10223;50.862;4.360;2022-12-20T04:55:53;2.73;;;1.60;;
20124;SDS011;10223;50.862;4.360;2022-12-20T04:58:20;2.30;;;1.43;;
20124;SDS011;10223;50.862;4.360;2022-12-20T05:00:49;6.80;;;2.03;;
20124;SDS011;10223;50.862;4.360;2022-12-20T05:03:17;4.87;;;1.80;;
20124;SDS011;10223;50.862;4.360;2022-12-20T05:05:44;3.57;;;1.70;;
20124;SDS011;10223;50.862;4.360;2022-12-20T05:08:11;3.20;;;1.47;;
20124;SDS011;10223;50.862;4.360;2022-12-20T05:10:38;6.40;;;2.30;;
20124;SDS011;10223;50.862;4.360;2022-12-20T05:13:05;2.57;;;1.63;;
20124;SDS011;10223;50.862;4.360;2022-12-20T05:15:32;3.43;;;1.50;;
20124;SDS011;10223;50.862;4.360;2022-12-20T05:18:01;3.90;;;1.20;;
20124;SDS011;10223;50.862;4.360;2022-12-20T05:20:29;3.83;;;1.40;;
20124;SDS011;10223;50.862;4.360;2022-12-20T05:22:57;4.43;;;1.40;;
20124;SDS011;10223;50.862;4.360;2022-12-20T05:25:42;3.30;;;1.60;;
20124;SDS011;10223;50.862;4.360;2022-12-20T05:28:28;2.77;;;1.33;;
20124;SDS011;10223;50.862;4.360;2022-12-20T05:30:56;2.73;;;1.30;;
20124;SDS011;10223;50.862;4.360;2022-12-20T05:33:25;3.37;;;1.63;;
20124;SDS011;10223;50.862;4.360;2022-12-20T05:35:52;7.33;;;1.50;;
20124;SDS011;10223;50.862;4.360;2022-12-20T05:38:19;5.13;;;1.37;;
20124;SDS011;10223;50.862;4.360;2022-12-20T05:40:46;2.93;;;1.20;;
20124;SDS011;10223;50.862;4.360;2022-12-20T05:43:14;2.43;;;1.40;;
20124;SDS011;10223;50.862;4.360;2022-12-20T05:45:44;3.63;;;1.30;;
20124;SDS011;10223;50.862;4.360;2022-12-20T05:48:12;2.23;;;1.23;;
20124;SDS011;10223;50.862;4.360;2022-12-20T05:50:40;5.10;;;1.50;;
20124;SDS011;10223;50.862;4.360;2022-12-20T05:53:08;3.87;;;1.30;;
20124;SDS011;10223;50.862;4.360;2022-12-20T05:55:36;4.33;;;1.30;;
20124;SDS011;10223;50.862;4.360;2022-12-20T05:58:04;1.63;;;1.20;;
20124;SDS011;10223;50.862;4.360;2022-12-20T06:00:32;4.57;;;1.73;;
20124;SDS011;10223;50.862;4.360;2022-12-20T06:02:59;4.03;;;1.40;;
20124;SDS011;10223;50.862;4.360;2022-12-20T06:05:26;3.97;;;1.50;;
20124;SDS011;10223;50.862;4.360;2022-12-20T06:07:54;2.97;;;1.20;;
20124;SDS011;10223;50.862;4.360;2022-12-20T06:10:21;2.07;;;1.07;;
20124;SDS011;10223;50.862;4.360;2022-12-20T06:12:48;4.60;;;1.37;;
20124;SDS011;10223;50.862;4.360;2022-12-20T06:15:15;7.33;;;1.60;;
20124;SDS011;10223;50.862;4.360;2022-12-20T06:17:42;1.87;;;1.23;;
20124;SDS011;10223;50.862;4.360;2022-12-20T06:20:10;2.47;;;1.40;;
20124;SDS011;10223;50.862;4.360;2022-12-20T06:22:37;2.33;;;1.13;;
20124;SDS011;10223;50.862;4.360;2022-12-20T06:25:06;4.13;;;1.30;;
20124;SDS011;10223;50.862;4.360;2022-12-20T06:27:34;2.37;;;1.20;;
20124;SDS011;10223;50.862;4.360;2022-12-20T06:30:01;4.03;;;1.20;;
20124;SDS011;10223;50.862;4.360;2022-12-20T06:32:29;5.07;;;1.43;;
20124;SDS011;10223;50.862;4.360;2022-12-20T06:34:56;2.90;;;1.37;;
20124;SDS011;10223;50.862;4.360;2022-12-20T06:37:23;5.50;;;1.80;;
20124;SDS011;10223;50.862;4.360;2022-12-20T06:39:50;4.43;;;1.63;;
20124;SDS011;10223;50.862;4.360;2022-12-20T06:42:18;3.83;;;1.50;;
20124;SDS011;10223;50.862;4.360;2022-12-20T06:44:45;1.63;;;0.83;;
20124;SDS011;10223;50.862;4.360;2022-12-20T06:47:12;6.60;;;1.53;;
20124;SDS011;10223;50.862;4.360;2022-12-20T06:49:39;3.37;;;1.33;;
20124;SDS011;10223;50.862;4.360;2022-12-20T06:52:06;3.60;;;1.10;;
20124;SDS011;10223;50.862;4.360;2022-12-20T06:54:33;5.13;;;1.53;;
20124;SDS011;10223;50.862;4.360;2022-12-20T06:57:00;3.50;;;1.13;;
20124;SDS011;10223;50.862;4.360;2022-12-20T06:59:28;7.37;;;1.23;;
20124;SDS011;10223;50.862;4.360;2022-12-20T07:01:55;4.20;;;1.43;;
20124;SDS011;10223;50.862;4.360;2022-12-20T07:04:22;5.63;;;1.50;;
20124;SDS011;10223;50.862;4.360;2022-12-20T07:06:49;3.43;;;1.40;;
20124;SDS011;10223;50.862;4.360;2022-12-20T07:09:16;4.30;;;1.13;;
20124;SDS011;10223;50.862;4.360;2022-12-20T07:11:43;3.60;;;1.50;;
20124;SDS011;10223;50.862;4.360;2022-12-20T07:14:10;3.37;;;1.40;;
20124;SDS011;10223;50.862;4.360;2022-12-20T07:16:38;4.67;;;1.60;;
20124;SDS011;10223;50.862;4.360;2022-12-20T07:19:09;3.90;;;1.40;;
20124;SDS011;10223;50.862;4.360;2022-12-20T07:21:37;3.80;;;1.23;;
20124;SDS011;10223;50.862;4.360;2022-12-20T07:24:04;4.43;;;1.40;;
20124;SDS011;10223;50.862;4.360;2022-12-20T07:26:31;4.40;;;1.70;;
20124;SDS011;10223;50.862;4.360;2022-12-20T07:28:58;5.17;;;1.50;;
20124;SDS011;10223;50.862;4.360;2022-12-20T07:31:26;3.77;;;1.40;;
20124;SDS011;10223;50.862;4.360;2022-12-20T07:33:54;4.17;;;1.53;;
20124;SDS011;10223;50.862;4.360;2022-12-20T07:36:21;5.90;;;1.27;;
20124;SDS011;10223;50.862;4.360;2022-12-20T07:38:48;8.20;;;1.50;;
20124;SDS011;10223;50.862;4.360;2022-12-20T07:41:16;7.30;;;1.53;;
20124;SDS011;10223;50.862;4.360;2022-12-20T07:43:43;3.53;;;1.57;;
20124;SDS011;10223;50.862;4.360;2022-12-20T07:46:11;5.10;;;1.23;;
20124;SDS011;10223;50.862;4.360;2022-12-20T07:48:39;6.93;;;1.40;;
20124;SDS011;10223;50.862;4.360;2022-12-20T07:51:09;5.13;;;1.60;;
20124;SDS011;10223;50.862;4.360;2022-12-20T07:53:39;4.43;;;1.63;;
20124;SDS011;10223;50.862;4.360;2022-12-20T07:56:09;6.50;;;1.57;;
20124;SDS011;10223;50.862;4.360;2022-12-20T07:58:38;3.03;;;1.67;;
20124;SDS011;10223;50.862;4.360;2022-12-20T08:01:07;5.77;;;2.00;;
20124;SDS011;10223;50.862;4.360;2022-12-20T08:03:37;1.63;;;1.00;;
20124;SDS011;10223;50.862;4.360;2022-12-20T08:06:09;4.60;;;1.80;;
20124;SDS011;10223;50.862;4.360;2022-12-20T08:08:38;2.27;;;1.60;;
20124;SDS011;10223;50.862;4.360;2022-12-20T08:11:11;4.70;;;1.83;;
20124;SDS011;10223;50.862;4.360;2022-12-20T08:13:39;5.47;;;1.97;;
20124;SDS011;10223;50.862;4.360;2022-12-20T08:16:06;6.20;;;1.63;;
20124;SDS011;10223;50.862;4.360;2022-12-20T08:18:33;3.13;;;1.77;;
20124;SDS011;10223;50.862;4.360;2022-12-20T08:21:00;3.33;;;1.47;;
20124;SDS011;10223;50.862;4.360;2022-12-20T08:23:29;4.47;;;1.77;;
20124;SDS011;10223;50.862;4.360;2022-12-20T08:25:56;9.00;;;2.40;;
20124;SDS011;10223;50.862;4.360;2022-12-20T08:28:26;5.13;;;1.90;;
20124;SDS011;10223;50.862;4.360;2022-12-20T08:30:58;3.27;;;1.50;;
20124;SDS011;10223;50.862;4.360;2022-12-20T08:33:26;5.73;;;2.03;;
20124;SDS011;10223;50.862;4.360;2022-12-20T08:35:55;3.57;;;1.80;;
20124;SDS011;10223;50.862;4.360;2022-12-20T08:38:24;4.30;;;1.70;;
20124;SDS011;10223;50.862;4.360;2022-12-20T08:40:53;4.93;;;1.93;;
20124;SDS011;10223;50.862;4.360;2022-12-20T08:43:20;3.80;;;1.60;;
20124;SDS011;10223;50.862;4.360;2022-12-20T08:45:50;3.23;;;1.93;;
20124;SDS011;10223;50.862;4.360;2022-12-20T08:48:18;3.97;;;1.53;;
20124;SDS011;10223;50.862;4.360;2022-12-20T08:50:45;5.30;;;1.80;;
20124;SDS011;10223;50.862;4.360;2022-12-20T08:53:12;6.30;;;1.87;;
20124;SDS011;10223;50.862;4.360;2022-12-20T08:55:39;4.63;;;2.00;;
20124;SDS011;10223;50.862;4.360;2022-12-20T08:58:07;5.47;;;1.97;;
20124;SDS011;10223;50.862;4.360;2022-12-20T09:00:34;5.23;;;2.10;;
20124;SDS011;10223;50.862;4.360;2022-12-20T09:03:01;8.30;;;1.93;;
20124;SDS011;10223;50.862;4.360;2022-12-20T09:05:28;6.40;;;1.90;;
20124;SDS011;10223;50.862;4.360;2022-12-20T09:07:55;2.80;;;1.60;;
20124;SDS011;10223;50.862;4.360;2022-12-20T09:10:22;7.27;;;2.23;;
20124;SDS011;10223;50.862;4.360;2022-12-20T09:12:49;5.80;;;2.07;;
20124;SDS011;10223;50.862;4.360;2022-12-20T09:15:17;6.53;;;2.17;;
20124;SDS011;10223;50.862;4.360;2022-12-20T09:17:44;4.47;;;1.87;;
20124;SDS011;10223;50.862;4.360;2022-12-20T09:20:12;3.60;;;1.60;;
20124;SDS011;10223;50.862;4.360;2022-12-20T09:22:40;3.23;;;1.70;;
20124;SDS011;10223;50.862;4.360;2022-12-20T09:25:07;9.07;;;1.60;;
20124;SDS011;10223;50.862;4.360;2022-12-20T09:27:34;4.57;;;2.00;;
20124;SDS011;10223;50.862;4.360;2022-12-20T09:30:02;2.93;;;1.70;;
20124;SDS011;10223;50.862;4.360;2022-12-20T09:32:31;7.50;;;2.53;;
20124;SDS011;10223;50.862;4.360;2022-12-20T09:34:57;5.83;;;1.90;;
20124;SDS011;10223;50.862;4.360;2022-12-20T09:37:24;5.10;;;2.13;;
20124;SDS011;10223;50.862;4.360;2022-12-20T09:39:54;2.57;;;1.53;;
20124;SDS011;10223;50.862;4.360;2022-12-20T09:42:21;4.60;;;1.83;;
20124;SDS011;10223;50.862;4.360;2022-12-20T09:44:50;7.40;;;2.27;;
20124;SDS011;10223;50.862;4.360;2022-12-20T09:47:18;6.80;;;1.70;;
20124;SDS011;10223;50.862;4.360;2022-12-20T09:49:54;4.80;;;1.93;;
20124;SDS011;10223;50.862;4.360;2022-12-20T09:52:29;8.83;;;2.17;;
20124;SDS011;10223;50.862;4.360;2022-12-20T09:55:14;7.50;;;2.00;;
20124;SDS011;10223;50.862;4.360;2022-12-20T09:57:51;5.63;;;2.50;;
20124;SDS011;10223;50.862;4.360;2022-12-20T10:00:28;3.53;;;1.60;;
20124;SDS011;10223;50.862;4.360;2022-12-20T10:03:01;7.03;;;2.63;;
20124;SDS011;10223;50.862;4.360;2022-12-20T10:05:32;3.13;;;2.07;;
20124;SDS011;10223;50.862;4.360;2022-12-20T10:08:05;4.43;;;2.20;;
20124;SDS011;10223;50.862;4.360;2022-12-20T10:10:48;5.10;;;2.10;;
20124;SDS011;10223;50.862;4.360;2022-12-20T10:13:24;7.00;;;2.43;;
20124;SDS011;10223;50.862;4.360;2022-12-20T10:16:05;3.27;;;2.00;;
20124;SDS011;10223;50.862;4.360;2022-12-20T10:18:44;5.63;;;2.17;;
20124;SDS011;10223;50.862;4.360;2022-12-20T10:21:24;15.80;;;2.33;;
20124;SDS011;10223;50.862;4.360;2022-12-20T10:24:02;4.27;;;2.33;;
20124;SDS011;10223;50.862;4.360;2022-12-20T10:26:35;3.63;;;1.73;;
20124;SDS011;10223;50.862;4.360;2022-12-20T10:29:02;3.77;;;2.03;;
20124;SDS011;10223;50.862;4.360;2022-12-20T10:31:29;3.87;;;1.80;;
20124;SDS011;10223;50.862;4.360;2022-12-20T10:33:56;3.73;;;2.27;;
20124;SDS011;10223;50.862;4.360;2022-12-20T10:36:25;9.63;;;2.37;;
20124;SDS011;10223;50.862;4.360;2022-12-20T10:38:56;5.90;;;2.13;;
20124;SDS011;10223;50.862;4.360;2022-12-20T10:41:25;3.60;;;2.10;;
20124;SDS011;10223;50.862;4.360;2022-12-20T10:43:55;7.07;;;2.70;;
20124;SDS011;10223;50.862;4.360;2022-12-20T10:46:33;4.80;;;2.40;;
20124;SDS011;10223;50.862;4.360;2022-12-20T10:51:55;3.30;;;2.60;;
20124;SDS011;10223;50.862;4.360;2022-12-20T10:54:24;4.60;;;2.47;;
20124;SDS011;10223;50.862;4.360;2022-12-20T10:56:57;4.80;;;3.00;;
20124;SDS011;10223;50.862;4.360;2022-12-20T10:59:28;6.00;;;2.57;;
20124;SDS011;10223;50.862;4.360;2022-12-20T11:01:58;8.13;;;2.53;;
20124;SDS011;10223;50.862;4.360;2022-12-20T11:04:26;7.30;;;2.70;;
20124;SDS011;10223;50.862;4.360;2022-12-20T11:06:57;6.33;;;2.63;;
20124;SDS011;10223;50.862;4.360;2022-12-20T11:09:29;6.10;;;2.57;;
20124;SDS011;10223;50.862;4.360;2022-12-20T11:12:00;4.93;;;2.80;;
20124;SDS011;10223;50.862;4.360;2022-12-20T11:14:30;5.60;;;2.90;;
20124;SDS011;10223;50.862;4.360;2022-12-20T11:16:58;5.20;;;2.73;;
20124;SDS011;10223;50.862;4.360;2022-12-20T11:19:32;8.93;;;3.03;;
20124;SDS011;10223;50.862;4.360;2022-12-20T11:22:09;6.90;;;2.87;;
20124;SDS011;10223;50.862;4.360;2022-12-20T11:24:48;9.13;;;3.30;;
20124;SDS011;10223;50.862;4.360;2022-12-20T11:27:25;10.50;;;2.77;;
20124;SDS011;10223;50.862;4.360;2022-12-20T11:30:05;6.57;;;2.83;;
20124;SDS011;10223;50.862;4.360;2022-12-20T11:32:49;8.87;;;2.97;;
20124;SDS011;10223;50.862;4.360;2022-12-20T11:35:27;5.07;;;3.07;;
20124;SDS011;10223;50.862;4.360;2022-12-20T11:38:05;7.33;;;2.90;;
20124;SDS011;10223;50.862;4.360;2022-12-20T11:40:39;6.20;;;2.73;;
20124;SDS011;10223;50.862;4.360;2022-12-20T11:43:13;5.93;;;2.93;;
20124;SDS011;10223;50.862;4.360;2022-12-20T11:46:12;6.43;;;3.30;;
20124;SDS011;10223;50.862;4.360;2022-12-20T11:48:50;7.90;;;3.40;;
20124;SDS011;10223;50.862;4.360;2022-12-20T11:51:37;5.07;;;3.17;;
20124;SDS011;10223;50.862;4.360;2022-12-20T11:54:13;7.47;;;2.80;;
20124;SDS011;10223;50.862;4.360;2022-12-20T11:56:47;6.40;;;2.73;;
20124;SDS011;10223;50.862;4.360;2022-12-20T11:59:21;7.87;;;3.30;;
20124;SDS011;10223;50.862;4.360;2022-12-20T12:01:59;7.07;;;3.00;;
20124;SDS011;10223;50.862;4.360;2022-12-20T12:04:31;9.17;;;2.87;;
20124;SDS011;10223;50.862;4.360;2022-12-20T12:07:08;8.20;;;3.13;;
20124;SDS011;10223;50.862;4.360;2022-12-20T12:09:41;6.20;;;2.77;;
20124;SDS011;10223;50.862;4.360;2022-12-20T12:12:17;10.37;;;3.20;;
20124;SDS011;10223;50.862;4.360;2022-12-20T12:14:49;9.10;;;3.37;;
20124;SDS011;10223;50.862;4.360;2022-12-20T12:17:25;6.40;;;3.30;;
20124;SDS011;10223;50.862;4.360;2022-12-20T12:20:01;7.13;;;3.27;;
20124;SDS011;10223;50.862;4.360;2022-12-20T12:22:43;6.93;;;3.20;;
20124;SDS011;10223;50.862;4.360;2022-12-20T12:25:16;4.50;;;2.57;;
20124;SDS011;10223;50.862;4.360;2022-12-20T12:27:44;8.70;;;2.50;;
20124;SDS011;10223;50.862;4.360;2022-12-20T12:30:11;6.93;;;3.37;;
20124;SDS011;10223;50.862;4.360;2022-12-20T12:32:40;6.27;;;3.07;;
20124;SDS011;10223;50.862;4.360;2022-12-20T12:38:15;8.63;;;3.30;;
20124;SDS011;10223;50.862;4.360;2022-12-20T12:41:19;6.20;;;2.83;;
20124;SDS011;10223;50.862;4.360;2022-12-20T12:44:01;5.47;;;2.87;;
20124;SDS011;10223;50.862;4.360;2022-12-20T12:46:50;8.30;;;3.27;;
20124;SDS011;10223;50.862;4.360;2022-12-20T12:49:23;8.67;;;3.70;;
20124;SDS011;10223;50.862;4.360;2022-12-20T12:51:53;7.33;;;3.37;;
20124;SDS011;10223;50.862;4.360;2022-12-20T12:54:25;6.87;;;3.47;;
20124;SDS011;10223;50.862;4.360;2022-12-20T12:56:55;10.83;;;3.90;;
20124;SDS011;10223;50.862;4.360;2022-12-20T13:02:23;7.47;;;3.90;;
20124;SDS011;10223;50.862;4.360;2022-12-20T13:07:56;9.87;;;3.60;;
20124;SDS011;10223;50.862;4.360;2022-12-20T13:13:26;8.03;;;3.63;;
20124;SDS011;10223;50.862;4.360;2022-12-20T13:16:09;5.37;;;3.20;;
20124;SDS011;10223;50.862;4.360;2022-12-20T13:21:30;7.27;;;3.73;;
20124;SDS011;10223;50.862;4.360;2022-12-20T13:27:16;8.30;;;4.10;;
20124;SDS011;10223;50.862;4.360;2022-12-20T13:29:59;9.23;;;4.10;;
20124;SDS011;10223;50.862;4.360;2022-12-20T13:35:55;11.37;;;4.47;;
20124;SDS011;10223;50.862;4.360;2022-12-20T13:41:36;9.63;;;4.13;;
20124;SDS011;10223;50.862;4.360;2022-12-20T13:44:18;8.80;;;4.50;;
20124;SDS011;10223;50.862;4.360;2022-12-20T13:46:59;9.67;;;4.43;;
20124;SDS011;10223;50.862;4.360;2022-12-20T13:49:33;8.53;;;4.27;;
20124;SDS011;10223;50.862;4.360;2022-12-20T13:52:11;10.40;;;4.50;;
20124;SDS011;10223;50.862;4.360;2022-12-20T13:54:43;7.70;;;3.60;;
20124;SDS011;10223;50.862;4.360;2022-12-20T13:57:14;12.10;;;5.37;;
20124;SDS011;10223;50.862;4.360;2022-12-20T13:59:43;11.97;;;6.20;;
20124;SDS011;10223;50.862;4.360;2022-12-20T14:02:18;8.83;;;5.50;;
20124;SDS011;10223;50.862;4.360;2022-12-20T14:04:50;16.33;;;5.60;;
20124;SDS011;10223;50.862;4.360;2022-12-20T14:07:23;11.77;;;6.37;;
20124;SDS011;10223;50.862;4.360;2022-12-20T14:09:54;12.13;;;5.30;;
20124;SDS011;10223;50.862;4.360;2022-12-20T14:12:22;9.73;;;4.73;;
20124;SDS011;10223;50.862;4.360;2022-12-20T14:14:49;8.47;;;4.87;;
20124;SDS011;10223;50.862;4.360;2022-12-20T14:17:21;12.70;;;4.50;;
20124;SDS011;10223;50.862;4.360;2022-12-20T14:20:04;8.63;;;4.37;;
20124;SDS011;10223;50.862;4.360;2022-12-20T14:22:32;8.13;;;4.23;;
20124;SDS011;10223;50.862;4.360;2022-12-20T14:25:01;10.67;;;4.90;;
20124;SDS011;10223;50.862;4.360;2022-12-20T14:27:32;10.63;;;4.77;;
20124;SDS011;10223;50.862;4.360;2022-12-20T14:30:01;6.50;;;3.70;;
20124;SDS011;10223;50.862;4.360;2022-12-20T14:32:31;6.67;;;3.53;;
20124;SDS011;10223;50.862;4.360;2022-12-20T14:34:58;9.40;;;4.10;;
20124;SDS011;10223;50.862;4.360;2022-12-20T14:37:26;8.17;;;4.70;;
20124;SDS011;10223;50.862;4.360;2022-12-20T14:39:57;10.43;;;3.90;;
20124;SDS011;10223;50.862;4.360;2022-12-20T14:42:27;6.77;;;3.50;;
20124;SDS011;10223;50.862;4.360;2022-12-20T14:45:02;7.97;;;3.90;;
20124;SDS011;10223;50.862;4.360;2022-12-20T14:47:33;6.80;;;3.93;;
20124;SDS011;10223;50.862;4.360;2022-12-20T14:50:02;6.37;;;3.87;;
20124;SDS011;10223;50.862;4.360;2022-12-20T14:52:32;13.30;;;4.23;;
20124;SDS011;10223;50.862;4.360;2022-12-20T14:55:03;8.83;;;3.93;;
20124;SDS011;10223;50.862;4.360;2022-12-20T14:57:37;6.13;;;3.87;;
20124;SDS011;10223;50.862;4.360;2022-12-20T15:00:09;7.73;;;4.23;;
20124;SDS011;10223;50.862;4.360;2022-12-20T15:02:42;8.67;;;5.17;;
20124;SDS011;10223;50.862;4.360;2022-12-20T15:08:09;10.17;;;4.67;;
20124;SDS011;10223;50.862;4.360;2022-12-20T15:10:40;7.37;;;4.20;;
20124;SDS011;10223;50.862;4.360;2022-12-20T15:13:10;8.10;;;4.90;;
20124;SDS011;10223;50.862;4.360;2022-12-20T15:15:39;11.20;;;4.57;;
20124;SDS011;10223;50.862;4.360;2022-12-20T15:18:10;8.87;;;4.87;;
20124;SDS011;10223;50.862;4.360;2022-12-20T15:20:39;10.63;;;4.90;;
20124;SDS011;10223;50.862;4.360;2022-12-20T15:23:14;13.17;;;5.33;;
20124;SDS011;10223;50.862;4.360;2022-12-20T15:25:42;11.80;;;5.10;;
20124;SDS011;10223;50.862;4.360;2022-12-20T15:28:11;10.10;;;4.97;;
20124;SDS011;10223;50.862;4.360;2022-12-20T15:30:39;10.03;;;5.17;;
20124;SDS011;10223;50.862;4.360;2022-12-20T15:33:07;6.70;;;4.60;;
20124;SDS011;10223;50.862;4.360;2022-12-20T15:35:40;12.33;;;5.20;;
20124;SDS011;10223;50.862;4.360;2022-12-20T15:38:08;8.80;;;5.00;;